sensor_id;sensor_type;location;lat;lon;timestamp;temperature;humidity
3100;DHT22;1560;52.746;13.474;2023-05-09T00:00:52;10.00;99.90
3100;DHT22;1560;52.746;13.474;2023-05-09T00:03:21;10.00;99.90
3100;DHT22;1560;52.746;13.474;2023-05-09T00:05:50;9.90;1.00
3100;DHT22;1560;52.746;13.474;2023-05-09T00:08:20;9.90;99.90
3100;DHT22;1560;52.746;13.474;2023-05-09T00:10:49;9.90;23.30
3100;DHT22;1560;52.746;13.474;2023-05-09T00:13:19;9.90;99.90
3100;DHT22;1560;52.746;13.474;2023-05-09T00:21:13;9.80;22.90
3100;DHT22;1560;52.746;13.474;2023-05-09T00:23:42;9.80;1.00
3100;DHT22;1560;52.746;13.474;2023-05-09T00:26:19;9.80;1.00
3100;DHT22;1560;52.746;13.474;2023-05-09T00:45:54;9.70;1.00
3100;DHT22;1560;52.746;13.474;2023-05-09T00:48:27;9.60;99.90
3100;DHT22;1560;52.746;13.474;2023-05-09T00:51:04;9.60;1.00
3100;DHT22;1560;52.746;13.474;2023-05-09T00:53:33;9.50;1.00
3100;DHT22;1560;52.746;13.474;2023-05-09T00:56:04;9.50;1.00
3100;DHT22;1560;52.746;13.474;2023-05-09T00:58:34;9.50;99.90
3100;DHT22;1560;52.746;13.474;2023-05-09T01:01:06;9.50;1.00
3100;DHT22;1560;52.746;13.474;2023-05-09T01:06:23;9.40;1.00
3100;DHT22;1560;52.746;13.474;2023-05-09T01:09:02;9.40;99.90
3100;DHT22;1560;52.746;13.474;2023-05-09T01:17:44;9.20;99.90
3100;DHT22;1560;52.746;13.474;2023-05-09T01:20:17;9.20;1.00
3100;DHT22;1560;52.746;13.474;2023-05-09T01:22:50;9.20;1.00
3100;DHT22;1560;52.746;13.474;2023-05-09T01:28:43;9.10;1.00
3100;DHT22;1560;52.746;13.474;2023-05-09T01:31:16;9.10;99.90
3100;DHT22;1560;52.746;13.474;2023-05-09T01:33:51;9.10;1.00
3100;DHT22;1560;52.746;13.474;2023-05-09T01:36:28;9.00;82.60
3100;DHT22;1560;52.746;13.474;2023-05-09T01:38:59;9.00;1.00
3100;DHT22;1560;52.746;13.474;2023-05-09T01:41:35;9.00;1.00
3100;DHT22;1560;52.746;13.474;2023-05-09T01:44:08;9.00;1.00
3100;DHT22;1560;52.746;13.474;2023-05-09T01:46:39;9.00;1.00
3100;DHT22;1560;52.746;13.474;2023-05-09T01:49:09;8.90;99.90
3100;DHT22;1560;52.746;13.474;2023-05-09T01:51:41;8.90;1.00
3100;DHT22;1560;52.746;13.474;2023-05-09T01:54:40;8.80;1.00
3100;DHT22;1560;52.746;13.474;2023-05-09T02:10:12;8.80;99.90
3100;DHT22;1560;52.746;13.474;2023-05-09T02:12:43;8.70;1.00
3100;DHT22;1560;52.746;13.474;2023-05-09T02:18:04;8.60;1.00
3100;DHT22;1560;52.746;13.474;2023-05-09T02:20:33;8.60;86.80
3100;DHT22;1560;52.746;13.474;2023-05-09T02:23:10;8.60;1.00
3100;DHT22;1560;52.746;13.474;2023-05-09T02:25:40;8.60;1.00
3100;DHT22;1560;52.746;13.474;2023-05-09T02:28:11;8.60;1.00
3100;DHT22;1560;52.746;13.474;2023-05-09T02:30:43;8.60;99.90
3100;DHT22;1560;52.746;13.474;2023-05-09T02:47:19;8.40;99.90
3100;DHT22;1560;52.746;13.474;2023-05-09T02:49:48;8.40;99.90
3100;DHT22;1560;52.746;13.474;2023-05-09T02:52:20;8.30;1.00
3100;DHT22;1560;52.746;13.474;2023-05-09T02:55:01;8.30;1.00
3100;DHT22;1560;52.746;13.474;2023-05-09T03:08:41;8.10;1.00
3100;DHT22;1560;52.746;13.474;2023-05-09T03:11:12;8.10;99.90
3100;DHT22;1560;52.746;13.474;2023-05-09T03:13:42;8.10;99.90
3100;DHT22;1560;52.746;13.474;2023-05-09T03:16:15;8.10;1.00
3100;DHT22;1560;52.746;13.474;2023-05-09T03:18:46;8.10;99.30
3100;DHT22;1560;52.746;13.474;2023-05-09T03:34:41;8.10;1.00
3100;DHT22;1560;52.746;13.474;2023-05-09T03:37:29;8.00;1.00
3100;DHT22;1560;52.746;13.474;2023-05-09T03:40:07;7.90;99.90
3100;DHT22;1560;52.746;13.474;2023-05-09T03:42:38;7.90;99.90
3100;DHT22;1560;52.746;13.474;2023-05-09T03:45:47;7.90;99.90
3100;DHT22;1560;52.746;13.474;2023-05-09T03:51:17;7.90;99.90
3100;DHT22;1560;52.746;13.474;2023-05-09T03:57:02;7.80;99.90
3100;DHT22;1560;52.746;13.474;2023-05-09T03:59:35;7.70;1.00
3100;DHT22;1560;52.746;13.474;2023-05-09T04:07:56;7.80;99.90
3100;DHT22;1560;52.746;13.474;2023-05-09T04:10:27;7.70;99.90
3100;DHT22;1560;52.746;13.474;2023-05-09T04:12:57;7.80;99.90
3100;DHT22;1560;52.746;13.474;2023-05-09T04:15:26;7.70;99.90
3100;DHT22;1560;52.746;13.474;2023-05-09T04:17:55;7.70;1.00
3100;DHT22;1560;52.746;13.474;2023-05-09T04:20:26;7.70;1.00
3100;DHT22;1560;52.746;13.474;2023-05-09T04:22:55;7.70;1.00
3100;DHT22;1560;52.746;13.474;2023-05-09T04:25:27;7.70;99.90
3100;DHT22;1560;52.746;13.474;2023-05-09T04:27:58;7.70;1.00
3100;DHT22;1560;52.746;13.474;2023-05-09T04:30:27;7.70;99.90
3100;DHT22;1560;52.746;13.474;2023-05-09T04:33:00;7.80;1.00
3100;DHT22;1560;52.746;13.474;2023-05-09T04:35:33;7.90;99.90
3100;DHT22;1560;52.746;13.474;2023-05-09T04:40:46;7.90;99.90
3100;DHT22;1560;52.746;13.474;2023-05-09T04:43:20;7.90;99.90
3100;DHT22;1560;52.746;13.474;2023-05-09T04:45:50;7.90;99.90
3100;DHT22;1560;52.746;13.474;2023-05-09T04:51:01;8.00;99.90
3100;DHT22;1560;52.746;13.474;2023-05-09T04:53:30;8.10;99.90
3100;DHT22;1560;52.746;13.474;2023-05-09T04:58:54;8.10;99.90
3100;DHT22;1560;52.746;13.474;2023-05-09T05:01:27;8.10;99.90
3100;DHT22;1560;52.746;13.474;2023-05-09T05:06:53;8.20;99.90
3100;DHT22;1560;52.746;13.474;2023-05-09T05:09:22;8.30;99.90
3100;DHT22;1560;52.746;13.474;2023-05-09T05:14:33;8.40;99.90
3100;DHT22;1560;52.746;13.474;2023-05-09T05:19:41;8.50;99.90
3100;DHT22;1560;52.746;13.474;2023-05-09T05:22:10;8.60;99.90
3100;DHT22;1560;52.746;13.474;2023-05-09T05:24:39;8.60;99.90
3100;DHT22;1560;52.746;13.474;2023-05-09T05:38:27;8.90;99.90
3100;DHT22;1560;52.746;13.474;2023-05-09T05:40:56;9.00;1.00
3100;DHT22;1560;52.746;13.474;2023-05-09T05:43:25;9.10;99.90
3100;DHT22;1560;52.746;13.474;2023-05-09T05:45:55;9.20;99.90
3100;DHT22;1560;52.746;13.474;2023-05-09T05:48:24;9.20;99.90
3100;DHT22;1560;52.746;13.474;2023-05-09T05:50:53;9.30;1.00
3100;DHT22;1560;52.746;13.474;2023-05-09T05:56:00;9.50;21.50
3100;DHT22;1560;52.746;13.474;2023-05-09T06:01:15;9.70;99.90
3100;DHT22;1560;52.746;13.474;2023-05-09T06:03:44;9.80;99.90
3100;DHT22;1560;52.746;13.474;2023-05-09T06:06:13;9.90;1.00
3100;DHT22;1560;52.746;13.474;2023-05-09T06:08:42;10.00;99.90
3100;DHT22;1560;52.746;13.474;2023-05-09T06:11:12;10.10;1.00
3100;DHT22;1560;52.746;13.474;2023-05-09T06:13:43;10.20;1.00
3100;DHT22;1560;52.746;13.474;2023-05-09T06:16:12;10.30;1.00
3100;DHT22;1560;52.746;13.474;2023-05-09T06:18:41;10.30;99.90
3100;DHT22;1560;52.746;13.474;2023-05-09T06:23:49;10.50;99.90
3100;DHT22;1560;52.746;13.474;2023-05-09T06:28:56;10.70;99.90
3100;DHT22;1560;52.746;13.474;2023-05-09T06:31:25;10.80;47.10
3100;DHT22;1560;52.746;13.474;2023-05-09T06:33:54;11.00;1.00
3100;DHT22;1560;52.746;13.474;2023-05-09T06:39:02;11.10;99.90
3100;DHT22;1560;52.746;13.474;2023-05-09T06:41:31;11.20;1.00
3100;DHT22;1560;52.746;13.474;2023-05-09T06:44:04;11.30;99.90
3100;DHT22;1560;52.746;13.474;2023-05-09T06:46:35;11.40;99.90
3100;DHT22;1560;52.746;13.474;2023-05-09T06:49:04;11.40;99.90
3100;DHT22;1560;52.746;13.474;2023-05-09T06:51:33;11.40;49.10
3100;DHT22;1560;52.746;13.474;2023-05-09T06:54:02;11.40;1.00
3100;DHT22;1560;52.746;13.474;2023-05-09T06:56:31;11.50;1.00
3100;DHT22;1560;52.746;13.474;2023-05-09T07:07:29;11.80;99.90
3100;DHT22;1560;52.746;13.474;2023-05-09T07:09:58;11.90;1.00
3100;DHT22;1560;52.746;13.474;2023-05-09T07:12:27;12.00;99.90
3100;DHT22;1560;52.746;13.474;2023-05-09T07:14:58;12.20;60.10
3100;DHT22;1560;52.746;13.474;2023-05-09T07:20:08;12.30;1.00
3100;DHT22;1560;52.746;13.474;2023-05-09T07:22:37;12.40;1.00
3100;DHT22;1560;52.746;13.474;2023-05-09T07:25:08;12.40;1.00
3100;DHT22;1560;52.746;13.474;2023-05-09T07:27:37;12.60;1.00
3100;DHT22;1560;52.746;13.474;2023-05-09T07:33:01;12.70;99.90
3100;DHT22;1560;52.746;13.474;2023-05-09T07:35:30;12.80;99.90
3100;DHT22;1560;52.746;13.474;2023-05-09T07:37:59;12.90;99.90
3100;DHT22;1560;52.746;13.474;2023-05-09T07:43:07;13.10;99.90
3100;DHT22;1560;52.746;13.474;2023-05-09T07:45:36;13.20;99.90
3100;DHT22;1560;52.746;13.474;2023-05-09T07:48:05;13.40;99.90
3100;DHT22;1560;52.746;13.474;2023-05-09T08:03:50;13.70;99.90
3100;DHT22;1560;52.746;13.474;2023-05-09T08:06:19;14.20;1.00
3100;DHT22;1560;52.746;13.474;2023-05-09T08:08:48;14.30;1.00
3100;DHT22;1560;52.746;13.474;2023-05-09T08:13:56;14.40;1.00
3100;DHT22;1560;52.746;13.474;2023-05-09T08:16:25;14.40;1.00
3100;DHT22;1560;52.746;13.474;2023-05-09T08:18:54;14.50;1.00
3100;DHT22;1560;52.746;13.474;2023-05-09T08:21:25;14.70;1.00
3100;DHT22;1560;52.746;13.474;2023-05-09T08:23:54;14.90;1.00
3100;DHT22;1560;52.746;13.474;2023-05-09T08:29:00;15.10;1.00
3100;DHT22;1560;52.746;13.474;2023-05-09T08:31:29;15.30;1.00
3100;DHT22;1560;52.746;13.474;2023-05-09T08:33:58;15.30;1.00
3100;DHT22;1560;52.746;13.474;2023-05-09T08:36:27;15.40;1.00
3100;DHT22;1560;52.746;13.474;2023-05-09T08:41:38;15.60;1.00
3100;DHT22;1560;52.746;13.474;2023-05-09T08:44:08;15.60;1.00
3100;DHT22;1560;52.746;13.474;2023-05-09T08:46:40;15.60;1.00
3100;DHT22;1560;52.746;13.474;2023-05-09T08:49:09;15.70;1.00
3100;DHT22;1560;52.746;13.474;2023-05-09T08:51:41;15.70;1.00
3100;DHT22;1560;52.746;13.474;2023-05-09T08:54:10;15.70;1.00
3100;DHT22;1560;52.746;13.474;2023-05-09T08:56:41;15.70;1.00
3100;DHT22;1560;52.746;13.474;2023-05-09T08:59:10;15.90;1.00
3100;DHT22;1560;52.746;13.474;2023-05-09T09:01:42;16.20;1.00
3100;DHT22;1560;52.746;13.474;2023-05-09T09:04:11;16.30;1.00
3100;DHT22;1560;52.746;13.474;2023-05-09T09:09:26;16.30;1.00
3100;DHT22;1560;52.746;13.474;2023-05-09T09:11:55;16.40;1.00
3100;DHT22;1560;52.746;13.474;2023-05-09T09:14:26;16.50;1.00
3100;DHT22;1560;52.746;13.474;2023-05-09T09:16:57;16.60;1.00
3100;DHT22;1560;52.746;13.474;2023-05-09T09:19:28;16.70;1.00
3100;DHT22;1560;52.746;13.474;2023-05-09T09:21:59;17.00;1.00
3100;DHT22;1560;52.746;13.474;2023-05-09T09:27:09;17.00;1.00
3100;DHT22;1560;52.746;13.474;2023-05-09T09:32:20;17.00;1.00
3100;DHT22;1560;52.746;13.474;2023-05-09T09:34:51;16.90;1.00
3100;DHT22;1560;52.746;13.474;2023-05-09T09:37:22;17.00;1.00
3100;DHT22;1560;52.746;13.474;2023-05-09T09:39:56;17.20;1.00
3100;DHT22;1560;52.746;13.474;2023-05-09T09:42:27;17.30;1.00
3100;DHT22;1560;52.746;13.474;2023-05-09T09:45:12;17.30;1.00
3100;DHT22;1560;52.746;13.474;2023-05-09T09:50:27;17.10;1.00
3100;DHT22;1560;52.746;13.474;2023-05-09T09:53:04;17.30;1.00
3100;DHT22;1560;52.746;13.474;2023-05-09T09:55:34;17.60;1.00
3100;DHT22;1560;52.746;13.474;2023-05-09T10:01:03;17.40;1.00
3100;DHT22;1560;52.746;13.474;2023-05-09T10:03:37;17.40;1.00
3100;DHT22;1560;52.746;13.474;2023-05-09T10:06:14;17.60;1.00
3100;DHT22;1560;52.746;13.474;2023-05-09T10:11:21;17.70;1.00
3100;DHT22;1560;52.746;13.474;2023-05-09T10:13:50;17.60;1.00
3100;DHT22;1560;52.746;13.474;2023-05-09T10:16:19;17.80;1.00
3100;DHT22;1560;52.746;13.474;2023-05-09T10:21:28;18.00;1.00
3100;DHT22;1560;52.746;13.474;2023-05-09T10:23:58;18.00;1.00
3100;DHT22;1560;52.746;13.474;2023-05-09T10:26:35;18.10;1.00
3100;DHT22;1560;52.746;13.474;2023-05-09T10:29:07;18.20;1.00
3100;DHT22;1560;52.746;13.474;2023-05-09T10:31:39;18.40;1.00
3100;DHT22;1560;52.746;13.474;2023-05-09T10:34:10;18.40;1.00
3100;DHT22;1560;52.746;13.474;2023-05-09T10:39:18;18.30;1.00
3100;DHT22;1560;52.746;13.474;2023-05-09T10:41:48;18.50;1.00
3100;DHT22;1560;52.746;13.474;2023-05-09T10:44:17;18.60;1.00
3100;DHT22;1560;52.746;13.474;2023-05-09T10:49:27;19.10;1.00
3100;DHT22;1560;52.746;13.474;2023-05-09T10:51:58;19.00;1.00
3100;DHT22;1560;52.746;13.474;2023-05-09T10:54:28;19.00;99.90
3100;DHT22;1560;52.746;13.474;2023-05-09T10:57:00;18.70;1.00
3100;DHT22;1560;52.746;13.474;2023-05-09T10:59:37;19.30;1.00
3100;DHT22;1560;52.746;13.474;2023-05-09T11:11:22;19.70;1.00
3100;DHT22;1560;52.746;13.474;2023-05-09T11:13:46;19.60;1.00
3100;DHT22;1560;52.746;13.474;2023-05-09T11:16:16;19.60;1.00
3100;DHT22;1560;52.746;13.474;2023-05-09T11:18:53;19.30;1.00
3100;DHT22;1560;52.746;13.474;2023-05-09T11:21:22;19.30;99.90
3100;DHT22;1560;52.746;13.474;2023-05-09T11:23:50;19.20;99.90
3100;DHT22;1560;52.746;13.474;2023-05-09T11:26:21;19.60;1.00
3100;DHT22;1560;52.746;13.474;2023-05-09T11:28:53;19.80;99.90
3100;DHT22;1560;52.746;13.474;2023-05-09T11:34:11;19.80;99.90
3100;DHT22;1560;52.746;13.474;2023-05-09T11:39:33;19.80;99.90
3100;DHT22;1560;52.746;13.474;2023-05-09T11:44:44;19.50;99.90
3100;DHT22;1560;52.746;13.474;2023-05-09T11:47:15;19.60;99.90
3100;DHT22;1560;52.746;13.474;2023-05-09T11:52:24;19.90;1.00
3100;DHT22;1560;52.746;13.474;2023-05-09T11:54:53;19.90;99.90
3100;DHT22;1560;52.746;13.474;2023-05-09T12:00:07;19.60;99.90
3100;DHT22;1560;52.746;13.474;2023-05-09T12:02:38;19.80;99.90
3100;DHT22;1560;52.746;13.474;2023-05-09T12:05:08;19.90;99.90
3100;DHT22;1560;52.746;13.474;2023-05-09T12:07:38;19.90;99.90
3100;DHT22;1560;52.746;13.474;2023-05-09T12:10:09;19.70;99.90
3100;DHT22;1560;52.746;13.474;2023-05-09T12:12:43;19.60;99.90
3100;DHT22;1560;52.746;13.474;2023-05-09T12:15:12;19.50;99.90
3100;DHT22;1560;52.746;13.474;2023-05-09T12:20:27;19.80;99.90
3100;DHT22;1560;52.746;13.474;2023-05-09T12:22:56;19.90;99.90
3100;DHT22;1560;52.746;13.474;2023-05-09T12:25:25;20.00;99.90
3100;DHT22;1560;52.746;13.474;2023-05-09T12:30:32;20.20;99.90
3100;DHT22;1560;52.746;13.474;2023-05-09T12:33:02;20.20;99.90
3100;DHT22;1560;52.746;13.474;2023-05-09T12:35:31;20.20;99.90
3100;DHT22;1560;52.746;13.474;2023-05-09T12:38:02;20.30;99.90
3100;DHT22;1560;52.746;13.474;2023-05-09T12:40:32;20.50;99.90
3100;DHT22;1560;52.746;13.474;2023-05-09T12:43:01;20.40;99.90
3100;DHT22;1560;52.746;13.474;2023-05-09T12:45:32;20.50;99.90
3100;DHT22;1560;52.746;13.474;2023-05-09T12:48:01;20.20;99.90
3100;DHT22;1560;52.746;13.474;2023-05-09T12:50:32;20.30;99.90
3100;DHT22;1560;52.746;13.474;2023-05-09T12:53:03;20.40;99.90
3100;DHT22;1560;52.746;13.474;2023-05-09T12:58:28;20.40;99.90
3100;DHT22;1560;52.746;13.474;2023-05-09T13:00:57;20.40;99.90
3100;DHT22;1560;52.746;13.474;2023-05-09T13:06:12;20.20;99.90
3100;DHT22;1560;52.746;13.474;2023-05-09T13:08:41;20.20;99.90
3100;DHT22;1560;52.746;13.474;2023-05-09T13:11:11;20.30;99.90
3100;DHT22;1560;52.746;13.474;2023-05-09T13:13:40;20.40;99.90
3100;DHT22;1560;52.746;13.474;2023-05-09T13:16:09;20.40;99.90
3100;DHT22;1560;52.746;13.474;2023-05-09T13:18:38;20.40;99.90
3100;DHT22;1560;52.746;13.474;2023-05-09T13:21:10;20.20;99.90
3100;DHT22;1560;52.746;13.474;2023-05-09T13:23:39;20.10;99.90
3100;DHT22;1560;52.746;13.474;2023-05-09T13:26:09;20.00;99.90
3100;DHT22;1560;52.746;13.474;2023-05-09T13:28:38;20.10;99.90
3100;DHT22;1560;52.746;13.474;2023-05-09T13:31:07;20.10;99.90
3100;DHT22;1560;52.746;13.474;2023-05-09T13:33:36;20.20;99.90
3100;DHT22;1560;52.746;13.474;2023-05-09T13:36:07;20.10;99.90
3100;DHT22;1560;52.746;13.474;2023-05-09T13:41:14;19.90;99.90
3100;DHT22;1560;52.746;13.474;2023-05-09T13:43:45;19.90;99.90
3100;DHT22;1560;52.746;13.474;2023-05-09T13:46:14;19.90;99.90
3100;DHT22;1560;52.746;13.474;2023-05-09T13:51:25;19.90;99.90
3100;DHT22;1560;52.746;13.474;2023-05-09T13:53:55;19.90;99.90
3100;DHT22;1560;52.746;13.474;2023-05-09T13:56:34;19.90;99.90
3100;DHT22;1560;52.746;13.474;2023-05-09T13:59:07;19.90;99.90
3100;DHT22;1560;52.746;13.474;2023-05-09T14:01:37;19.50;99.90
3100;DHT22;1560;52.746;13.474;2023-05-09T14:04:06;19.50;99.90
3100;DHT22;1560;52.746;13.474;2023-05-09T14:06:35;19.40;99.90
3100;DHT22;1560;52.746;13.474;2023-05-09T14:11:45;19.40;99.90
3100;DHT22;1560;52.746;13.474;2023-05-09T14:14:15;19.40;99.90
3100;DHT22;1560;52.746;13.474;2023-05-09T14:16:45;19.40;99.90
3100;DHT22;1560;52.746;13.474;2023-05-09T14:19:15;19.30;99.90
3100;DHT22;1560;52.746;13.474;2023-05-09T14:21:45;19.50;99.90
3100;DHT22;1560;52.746;13.474;2023-05-09T14:24:14;19.40;99.90
3100;DHT22;1560;52.746;13.474;2023-05-09T14:29:29;19.40;99.90
3100;DHT22;1560;52.746;13.474;2023-05-09T14:34:38;19.30;99.90
3100;DHT22;1560;52.746;13.474;2023-05-09T14:37:07;19.30;99.90
3100;DHT22;1560;52.746;13.474;2023-05-09T14:39:37;19.20;99.90
3100;DHT22;1560;52.746;13.474;2023-05-09T14:42:07;19.20;99.90
3100;DHT22;1560;52.746;13.474;2023-05-09T14:44:38;19.30;99.90
3100;DHT22;1560;52.746;13.474;2023-05-09T14:47:08;19.30;99.90
3100;DHT22;1560;52.746;13.474;2023-05-09T14:52:21;19.20;99.90
3100;DHT22;1560;52.746;13.474;2023-05-09T14:54:50;19.10;99.90
3100;DHT22;1560;52.746;13.474;2023-05-09T14:57:19;19.10;99.90
3100;DHT22;1560;52.746;13.474;2023-05-09T14:59:48;19.20;99.90
3100;DHT22;1560;52.746;13.474;2023-05-09T15:02:17;19.30;99.90
3100;DHT22;1560;52.746;13.474;2023-05-09T15:07:23;19.10;99.90
3100;DHT22;1560;52.746;13.474;2023-05-09T15:09:52;19.00;99.90
3100;DHT22;1560;52.746;13.474;2023-05-09T15:12:21;19.10;99.90
3100;DHT22;1560;52.746;13.474;2023-05-09T15:17:28;19.10;99.90
3100;DHT22;1560;52.746;13.474;2023-05-09T15:19:57;19.10;99.90
3100;DHT22;1560;52.746;13.474;2023-05-09T15:22:26;18.90;99.90
3100;DHT22;1560;52.746;13.474;2023-05-09T15:27:35;19.00;99.90
3100;DHT22;1560;52.746;13.474;2023-05-09T15:30:07;19.00;99.90
3100;DHT22;1560;52.746;13.474;2023-05-09T15:32:37;19.00;99.90
3100;DHT22;1560;52.746;13.474;2023-05-09T15:35:08;19.00;99.90
3100;DHT22;1560;52.746;13.474;2023-05-09T15:37:37;18.90;99.90
3100;DHT22;1560;52.746;13.474;2023-05-09T15:40:08;18.90;99.90
3100;DHT22;1560;52.746;13.474;2023-05-09T15:42:38;18.90;99.90
3100;DHT22;1560;52.746;13.474;2023-05-09T15:45:08;18.90;99.90
3100;DHT22;1560;52.746;13.474;2023-05-09T15:47:37;18.90;99.90
3100;DHT22;1560;52.746;13.474;2023-05-09T15:50:08;18.80;99.90
3100;DHT22;1560;52.746;13.474;2023-05-09T15:55:21;18.90;99.90
3100;DHT22;1560;52.746;13.474;2023-05-09T15:57:50;18.80;99.90
3100;DHT22;1560;52.746;13.474;2023-05-09T16:00:21;18.90;99.90
3100;DHT22;1560;52.746;13.474;2023-05-09T16:02:50;18.80;99.90
3100;DHT22;1560;52.746;13.474;2023-05-09T16:05:18;18.80;99.90
3100;DHT22;1560;52.746;13.474;2023-05-09T16:07:47;18.80;99.90
3100;DHT22;1560;52.746;13.474;2023-05-09T16:10:19;18.70;99.90
3100;DHT22;1560;52.746;13.474;2023-05-09T16:15:26;18.60;99.90
3100;DHT22;1560;52.746;13.474;2023-05-09T16:30:57;18.60;99.90
3100;DHT22;1560;52.746;13.474;2023-05-09T16:33:28;18.50;99.90
3100;DHT22;1560;52.746;13.474;2023-05-09T16:35:57;18.40;99.90
3100;DHT22;1560;52.746;13.474;2023-05-09T16:38:26;18.40;99.90
3100;DHT22;1560;52.746;13.474;2023-05-09T16:43:34;18.40;99.90
3100;DHT22;1560;52.746;13.474;2023-05-09T16:46:03;18.40;99.90
3100;DHT22;1560;52.746;13.474;2023-05-09T16:48:32;18.40;99.90
3100;DHT22;1560;52.746;13.474;2023-05-09T16:53:42;18.30;99.90
3100;DHT22;1560;52.746;13.474;2023-05-09T16:56:11;18.30;99.90
3100;DHT22;1560;52.746;13.474;2023-05-09T16:58:39;18.20;99.90
3100;DHT22;1560;52.746;13.474;2023-05-09T17:01:10;18.20;99.90
3100;DHT22;1560;52.746;13.474;2023-05-09T17:03:39;18.10;1.00
3100;DHT22;1560;52.746;13.474;2023-05-09T17:06:08;18.00;1.00
3100;DHT22;1560;52.746;13.474;2023-05-09T17:08:37;18.00;99.90
3100;DHT22;1560;52.746;13.474;2023-05-09T17:11:11;18.00;99.90
3100;DHT22;1560;52.746;13.474;2023-05-09T17:13:40;18.00;99.90
3100;DHT22;1560;52.746;13.474;2023-05-09T17:16:10;18.00;1.00
3100;DHT22;1560;52.746;13.474;2023-05-09T17:18:39;18.00;99.90
3100;DHT22;1560;52.746;13.474;2023-05-09T17:21:18;18.00;99.90
3100;DHT22;1560;52.746;13.474;2023-05-09T17:26:38;18.00;99.90
3100;DHT22;1560;52.746;13.474;2023-05-09T18:30:57;16.60;1.00
3100;DHT22;1560;52.746;13.474;2023-05-09T19:57:03;14.90;8.10
3100;DHT22;1560;52.746;13.474;2023-05-09T19:59:33;14.90;1.00
3100;DHT22;1560;52.746;13.474;2023-05-09T20:02:02;14.90;1.00
3100;DHT22;1560;52.746;13.474;2023-05-09T20:04:33;14.90;4.50
3100;DHT22;1560;52.746;13.474;2023-05-09T20:07:03;14.90;99.90
3100;DHT22;1560;52.746;13.474;2023-05-09T20:09:32;14.80;1.00
3100;DHT22;1560;52.746;13.474;2023-05-09T20:12:02;14.80;40.10
3100;DHT22;1560;52.746;13.474;2023-05-09T20:14:32;14.70;1.00
3100;DHT22;1560;52.746;13.474;2023-05-09T20:17:03;14.70;1.00
3100;DHT22;1560;52.746;13.474;2023-05-09T20:22:27;14.70;1.00
3100;DHT22;1560;52.746;13.474;2023-05-09T20:27:49;14.60;1.00
3100;DHT22;1560;52.746;13.474;2023-05-09T20:30:19;14.60;1.00
3100;DHT22;1560;52.746;13.474;2023-05-09T20:32:48;14.50;8.70
3100;DHT22;1560;52.746;13.474;2023-05-09T20:37:55;14.50;92.20
3100;DHT22;1560;52.746;13.474;2023-05-09T20:40:24;14.40;45.00
3100;DHT22;1560;52.746;13.474;2023-05-09T20:42:53;14.40;46.10
3100;DHT22;1560;52.746;13.474;2023-05-09T20:48:01;14.40;42.80
3100;DHT22;1560;52.746;13.474;2023-05-09T20:50:30;14.40;99.90
3100;DHT22;1560;52.746;13.474;2023-05-09T20:55:42;14.30;99.90
3100;DHT22;1560;52.746;13.474;2023-05-09T20:58:14;14.30;99.90
3100;DHT22;1560;52.746;13.474;2023-05-09T21:00:43;14.30;99.90
3100;DHT22;1560;52.746;13.474;2023-05-09T21:03:15;14.30;99.90
3100;DHT22;1560;52.746;13.474;2023-05-09T21:09:08;14.20;99.90
3100;DHT22;1560;52.746;13.474;2023-05-09T21:11:37;14.20;99.90
3100;DHT22;1560;52.746;13.474;2023-05-09T21:14:07;14.10;99.90
3100;DHT22;1560;52.746;13.474;2023-05-09T21:16:36;14.10;99.90
3100;DHT22;1560;52.746;13.474;2023-05-09T21:21:43;13.90;99.90
3100;DHT22;1560;52.746;13.474;2023-05-09T21:24:12;13.90;99.90
3100;DHT22;1560;52.746;13.474;2023-05-09T21:29:20;13.90;99.90
3100;DHT22;1560;52.746;13.474;2023-05-09T21:31:49;13.90;99.90
3100;DHT22;1560;52.746;13.474;2023-05-09T21:36:58;13.80;99.90
3100;DHT22;1560;52.746;13.474;2023-05-09T21:39:27;13.70;1.00
3100;DHT22;1560;52.746;13.474;2023-05-09T21:44:36;13.60;99.90
3100;DHT22;1560;52.746;13.474;2023-05-09T21:47:05;13.60;1.00
3100;DHT22;1560;52.746;13.474;2023-05-09T21:49:34;13.60;1.00
3100;DHT22;1560;52.746;13.474;2023-05-09T21:52:04;13.60;1.00
3100;DHT22;1560;52.746;13.474;2023-05-09T21:54:33;13.60;1.00
3100;DHT22;1560;52.746;13.474;2023-05-09T21:57:02;13.50;1.00
3100;DHT22;1560;52.746;13.474;2023-05-09T21:59:33;13.40;1.00
3100;DHT22;1560;52.746;13.474;2023-05-09T22:04:41;13.30;1.00
3100;DHT22;1560;52.746;13.474;2023-05-09T22:09:53;13.20;1.00
3100;DHT22;1560;52.746;13.474;2023-05-09T22:12:23;13.30;1.00
3100;DHT22;1560;52.746;13.474;2023-05-09T22:14:54;13.30;1.00
3100;DHT22;1560;52.746;13.474;2023-05-09T22:19:59;13.20;99.90
3100;DHT22;1560;52.746;13.474;2023-05-09T22:22:29;13.20;99.90
3100;DHT22;1560;52.746;13.474;2023-05-09T22:24:59;13.20;99.90
3100;DHT22;1560;52.746;13.474;2023-05-09T22:27:29;13.10;99.90
3100;DHT22;1560;52.746;13.474;2023-05-09T22:29:58;13.10;99.90
3100;DHT22;1560;52.746;13.474;2023-05-09T22:32:28;13.10;99.90
3100;DHT22;1560;52.746;13.474;2023-05-09T22:37:34;13.10;99.90
3100;DHT22;1560;52.746;13.474;2023-05-09T22:42:57;13.10;99.90
3100;DHT22;1560;52.746;13.474;2023-05-09T22:45:26;12.90;99.90
3100;DHT22;1560;52.746;13.474;2023-05-09T22:56:26;12.70;1.00
3100;DHT22;1560;52.746;13.474;2023-05-09T23:01:35;12.70;99.90
3100;DHT22;1560;52.746;13.474;2023-05-09T23:04:03;12.60;1.00
3100;DHT22;1560;52.746;13.474;2023-05-09T23:06:33;12.60;99.90
3100;DHT22;1560;52.746;13.474;2023-05-09T23:09:02;12.60;99.90
3100;DHT22;1560;52.746;13.474;2023-05-09T23:11:31;12.50;99.90
3100;DHT22;1560;52.746;13.474;2023-05-09T23:14:00;12.50;99.90
3100;DHT22;1560;52.746;13.474;2023-05-09T23:19:13;12.40;1.00
3100;DHT22;1560;52.746;13.474;2023-05-09T23:21:42;12.40;1.00
3100;DHT22;1560;52.746;13.474;2023-05-09T23:24:11;12.40;1.00
3100;DHT22;1560;52.746;13.474;2023-05-09T23:29:19;12.30;99.90
3100;DHT22;1560;52.746;13.474;2023-05-09T23:31:49;12.30;99.90
3100;DHT22;1560;52.746;13.474;2023-05-09T23:34:18;12.30;99.90
3100;DHT22;1560;52.746;13.474;2023-05-09T23:36:47;12.20;99.90
3100;DHT22;1560;52.746;13.474;2023-05-09T23:39:16;12.10;1.00
3100;DHT22;1560;52.746;13.474;2023-05-09T23:41:45;12.00;90.80
3100;DHT22;1560;52.746;13.474;2023-05-09T23:44:14;12.00;99.90
3100;DHT22;1560;52.746;13.474;2023-05-09T23:46:44;12.00;99.90
3100;DHT22;1560;52.746;13.474;2023-05-09T23:49:13;11.90;44.60
3100;DHT22;1560;52.746;13.474;2023-05-09T23:51:42;11.90;26.50
3100;DHT22;1560;52.746;13.474;2023-05-09T23:54:11;11.90;99.90
3100;DHT22;1560;52.746;13.474;2023-05-09T23:56:40;11.90;99.90
3100;DHT22;1560;52.746;13.474;2023-05-09T23:59:09;11.80;1.00
